createdAt,value
2019-04-05T00:01:43.313Z,2.40
2019-04-05T00:04:10.129Z,2.50
2019-04-05T00:06:36.859Z,2.50
2019-04-05T00:09:05.417Z,2.50
2019-04-05T00:11:32.194Z,2.40
2019-04-05T00:13:58.919Z,2.40
2019-04-05T00:16:25.637Z,2.50
2019-04-05T00:18:52.419Z,2.60
2019-04-05T00:21:19.140Z,2.50
2019-04-05T00:23:45.943Z,2.50
2019-04-05T00:26:12.677Z,2.40
2019-04-05T00:28:39.459Z,2.40
2019-04-05T00:31:06.327Z,2.40
2019-04-05T00:33:33.072Z,2.40
2019-04-05T00:35:59.798Z,2.40
2019-04-05T00:38:26.656Z,2.40
2019-04-05T00:40:53.400Z,2.50
2019-04-05T00:43:20.142Z,2.50
2019-04-05T00:45:46.900Z,2.30
2019-04-05T00:48:13.638Z,2.50
2019-04-05T00:50:40.547Z,2.50
2019-04-05T00:53:07.283Z,2.50
2019-04-05T00:55:34.116Z,2.50
2019-04-05T00:58:00.887Z,2.50
2019-04-05T01:00:27.716Z,2.50
2019-04-05T01:02:54.450Z,2.60
2019-04-05T01:05:21.254Z,2.50
2019-04-05T01:07:48.086Z,2.50
2019-04-05T01:10:15.014Z,2.50
2019-04-05T01:12:44.694Z,2.50
2019-04-05T01:15:14.237Z,2.40
2019-04-05T01:17:41.116Z,2.50
2019-04-05T01:20:09.039Z,2.50
2019-04-05T01:22:37.170Z,2.50
2019-04-05T01:25:05.332Z,2.50
2019-04-05T01:27:34.456Z,2.50
2019-04-05T01:30:01.555Z,2.50
2019-04-05T01:32:28.301Z,2.50
2019-04-05T01:34:55.120Z,2.50
2019-04-05T01:37:22.188Z,2.40
2019-04-05T01:39:48.920Z,2.40
2019-04-05T01:42:16.316Z,2.40
2019-04-05T01:44:43.644Z,2.40
2019-04-05T01:47:10.379Z,2.40
2019-04-05T01:49:37.257Z,2.50
2019-04-05T01:52:04.072Z,2.40
2019-04-05T01:54:30.803Z,2.40
2019-04-05T01:56:57.560Z,2.40
2019-04-05T01:59:24.290Z,2.40
2019-04-05T02:01:51.241Z,2.40
2019-04-05T02:04:17.994Z,2.40
2019-04-05T02:06:44.818Z,2.50
2019-04-05T02:09:11.728Z,2.50
2019-04-05T02:11:38.551Z,2.50
2019-04-05T02:14:05.383Z,2.50
2019-04-05T02:16:32.183Z,2.40
2019-04-05T02:18:59.014Z,2.40
2019-04-05T02:21:25.837Z,2.40
2019-04-05T02:23:52.808Z,2.40
2019-04-05T02:26:19.553Z,2.40
2019-04-05T02:28:46.287Z,2.50
2019-04-05T02:31:13.300Z,2.40
2019-04-05T02:33:40.058Z,2.40
2019-04-05T02:36:06.830Z,2.40
2019-04-05T02:38:33.556Z,2.40
2019-04-05T02:41:01.997Z,2.40
2019-04-05T02:43:32.962Z,2.40
2019-04-05T02:46:01.376Z,2.40
2019-04-05T02:48:33.558Z,2.40
2019-04-05T02:51:02.885Z,2.50
2019-04-05T02:53:32.500Z,2.40
2019-04-05T02:56:02.969Z,2.40
2019-04-05T02:58:31.004Z,2.40
2019-04-05T03:00:57.903Z,2.30
2019-04-05T03:03:25.017Z,2.40
2019-04-05T03:05:51.940Z,2.50
2019-04-05T03:08:19.299Z,2.50
2019-04-05T03:11:06.558Z,2.40
2019-04-05T03:13:38.453Z,2.40
2019-04-05T03:16:16.595Z,2.40
2019-04-05T03:18:51.414Z,2.50
2019-04-05T03:21:23.536Z,2.30
2019-04-05T03:23:54.002Z,2.40
2019-04-05T03:26:26.140Z,2.40
2019-04-05T03:28:57.929Z,2.40
2019-04-05T03:31:26.038Z,2.40
2019-04-05T03:33:53.454Z,2.50
2019-04-05T03:36:21.914Z,2.50
2019-04-05T03:38:49.958Z,2.50
2019-04-05T03:41:16.738Z,2.50
2019-04-05T03:43:44.069Z,2.50
2019-04-05T03:46:11.084Z,2.50
2019-04-05T03:48:37.995Z,2.50
2019-04-05T03:51:05.367Z,2.50
2019-04-05T03:53:32.157Z,2.50
2019-04-05T03:56:00.250Z,2.50
2019-04-05T03:58:28.173Z,2.40
2019-04-05T04:00:55.019Z,2.40
2019-04-05T04:03:21.788Z,2.40
2019-04-05T04:05:48.625Z,2.40
2019-04-05T04:08:16.016Z,2.40
2019-04-05T04:10:45.751Z,2.40
2019-04-05T04:13:12.793Z,2.50
2019-04-05T04:15:39.694Z,2.40
2019-04-05T04:18:06.533Z,2.40
2019-04-05T04:20:44.343Z,2.40
2019-04-05T04:23:11.571Z,2.40
2019-04-05T04:25:40.482Z,2.30
2019-04-05T04:28:08.505Z,2.30
2019-04-05T04:30:36.806Z,2.40
2019-04-05T04:33:05.171Z,2.50
2019-04-05T04:35:33.166Z,2.50
2019-04-05T04:38:00.665Z,2.40
2019-04-05T04:40:28.159Z,2.40
2019-04-05T04:42:55.189Z,2.40
2019-04-05T04:45:22.216Z,2.30
2019-04-05T04:47:49.437Z,2.40
2019-04-05T04:50:16.974Z,2.40
2019-04-05T04:52:44.006Z,2.50
2019-04-05T04:55:11.208Z,2.50
2019-04-05T04:57:38.347Z,2.40
2019-04-05T05:00:06.432Z,2.40
2019-04-05T05:02:33.266Z,2.40
2019-04-05T05:05:00.488Z,2.40
2019-04-05T05:08:23.293Z,2.40
2019-04-05T05:10:50.046Z,2.40
2019-04-05T05:13:16.996Z,2.40
2019-04-05T05:15:44.085Z,2.40
2019-04-05T05:18:11.024Z,2.30
2019-04-05T05:20:37.765Z,2.30
2019-04-05T05:23:04.965Z,2.30
2019-04-05T05:25:32.688Z,2.30
2019-04-05T05:27:59.420Z,2.30
2019-04-05T05:30:26.879Z,2.40
2019-04-05T05:32:53.848Z,2.40
2019-04-05T05:35:20.658Z,2.40
2019-04-05T05:37:48.206Z,2.40
2019-04-05T05:40:16.034Z,2.50
2019-04-05T05:42:42.776Z,2.60
2019-04-05T05:45:10.086Z,2.60
2019-04-05T05:47:36.807Z,2.60
2019-04-05T05:50:08.366Z,2.50
2019-04-05T05:52:35.711Z,2.50
2019-04-05T05:55:06.542Z,2.50
2019-04-05T05:57:33.285Z,2.50
2019-04-05T06:00:00.507Z,2.50
2019-04-05T06:02:28.108Z,2.50
2019-04-05T06:04:55.260Z,2.50
2019-04-05T06:07:21.988Z,2.50
2019-04-05T06:09:48.781Z,2.50
2019-04-05T06:12:15.506Z,2.60
2019-04-05T06:14:42.244Z,2.50
2019-04-05T06:17:09.057Z,2.50
2019-04-05T06:19:35.776Z,2.60
2019-04-05T06:22:02.505Z,2.60
2019-04-05T06:24:29.269Z,2.60
2019-04-05T06:26:56.007Z,2.60
2019-04-05T06:29:22.738Z,2.70
2019-04-05T06:31:49.490Z,2.60
2019-04-05T06:34:16.393Z,2.60
2019-04-05T06:36:43.103Z,2.70
2019-04-05T06:39:09.881Z,2.70
2019-04-05T06:41:36.626Z,2.70
2019-04-05T06:44:03.505Z,2.80
2019-04-05T06:46:30.256Z,2.80
2019-04-05T06:48:56.986Z,2.80
2019-04-05T06:51:23.760Z,2.80
2019-04-05T06:53:50.507Z,2.80
2019-04-05T06:56:17.346Z,2.90
2019-04-05T06:58:46.338Z,2.80
2019-04-05T07:01:12.676Z,2.90
2019-04-05T07:03:39.411Z,2.90
2019-04-05T07:06:06.182Z,2.90
2019-04-05T07:08:32.916Z,2.90
2019-04-05T07:10:59.659Z,3.00
2019-04-05T07:13:27.609Z,3.00
2019-04-05T07:15:54.455Z,3.00
2019-04-05T07:18:32.622Z,3.00
2019-04-05T07:20:49.768Z,3.00
2019-04-05T07:23:16.480Z,3.00
2019-04-05T07:25:43.192Z,3.00
2019-04-05T07:28:09.964Z,3.10
2019-04-05T07:30:36.688Z,3.10
2019-04-05T07:33:03.478Z,3.10
2019-04-05T07:35:33.675Z,3.10
2019-04-05T07:37:59.162Z,3.10
2019-04-05T07:40:25.923Z,3.20
2019-04-05T07:42:52.669Z,3.30
2019-04-05T07:45:19.457Z,3.20
2019-04-05T07:47:46.198Z,3.30
2019-04-05T07:50:13.544Z,3.30
2019-04-05T07:52:40.346Z,3.40
2019-04-05T07:55:07.160Z,3.30
2019-04-05T07:57:33.884Z,3.30
2019-04-05T08:00:00.672Z,3.30
2019-04-05T08:02:27.380Z,3.40
2019-04-05T08:04:54.786Z,3.30
2019-04-05T08:07:25.584Z,3.30
2019-04-05T08:09:53.911Z,3.30
2019-04-05T08:12:21.409Z,3.40
2019-04-05T08:14:48.828Z,3.40
2019-04-05T08:17:15.620Z,3.30
2019-04-05T08:19:42.354Z,3.40
2019-04-05T08:22:09.074Z,3.40
2019-04-05T08:24:35.866Z,3.40
2019-04-05T08:27:02.614Z,3.40
2019-04-05T08:29:29.412Z,3.40
2019-04-05T08:31:56.136Z,3.30
2019-04-05T08:34:22.875Z,3.40
2019-04-05T08:36:49.679Z,3.50
2019-04-05T08:39:16.402Z,3.50
2019-04-05T08:41:43.200Z,3.50
2019-04-05T08:44:09.956Z,3.60
2019-04-05T08:46:36.690Z,3.60
2019-04-05T08:49:10.449Z,3.70
2019-04-05T08:51:32.679Z,3.70
2019-04-05T08:53:59.421Z,3.80
2019-04-05T08:56:26.202Z,3.90
2019-04-05T08:58:52.913Z,4.00
2019-04-05T09:01:19.650Z,4.00
2019-04-05T09:03:46.444Z,4.20
2019-04-05T09:06:13.182Z,4.20
2019-04-05T09:08:39.937Z,4.30
2019-04-05T09:11:06.809Z,4.30
2019-04-05T09:13:33.549Z,4.30
2019-04-05T09:16:00.291Z,4.40
2019-04-05T09:18:27.045Z,4.40
2019-04-05T09:20:55.597Z,4.50
2019-04-05T09:23:22.302Z,4.60
2019-04-05T09:25:49.087Z,4.60
2019-04-05T09:28:15.832Z,4.60
2019-04-05T09:30:42.609Z,4.70
2019-04-05T09:33:09.343Z,4.80
2019-04-05T09:35:36.084Z,4.80
2019-04-05T09:38:03.019Z,4.80
2019-04-05T09:40:29.768Z,4.80
2019-04-05T09:42:56.494Z,4.90
2019-04-05T09:45:23.270Z,5.00
2019-04-05T09:50:45.377Z,5.00
2019-04-05T09:53:12.105Z,5.00
2019-04-05T09:55:38.831Z,5.00
2019-04-05T09:58:05.619Z,5.00
2019-04-05T10:00:32.347Z,5.00
2019-04-05T10:02:59.087Z,5.10
2019-04-05T10:05:25.876Z,5.10
2019-04-05T10:07:55.095Z,5.10
2019-04-05T10:10:21.181Z,5.20
2019-04-05T10:12:47.949Z,5.10
2019-04-05T10:15:14.861Z,5.10
2019-04-05T10:17:41.650Z,5.10
2019-04-05T10:20:09.050Z,5.10
2019-04-05T10:22:35.873Z,5.10
2019-04-05T10:25:05.211Z,5.10
2019-04-05T10:27:31.931Z,5.10
2019-04-05T10:29:59.002Z,5.10
2019-04-05T10:32:25.715Z,5.20
2019-04-05T10:34:56.545Z,5.10
2019-04-05T10:37:23.969Z,5.10
2019-04-05T10:39:50.757Z,5.10
2019-04-05T10:42:32.774Z,5.10
2019-04-05T10:44:59.583Z,5.10
2019-04-05T10:47:26.708Z,5.20
2019-04-05T10:50:03.174Z,5.30
2019-04-05T10:52:22.010Z,5.30
2019-04-05T10:54:48.722Z,5.30
2019-04-05T10:57:15.565Z,5.40
2019-04-05T10:59:42.279Z,5.40
2019-04-05T11:02:09.023Z,5.60
2019-04-05T11:04:35.777Z,5.60
2019-04-05T11:07:02.588Z,5.70
2019-04-05T11:09:29.387Z,5.70
2019-04-05T11:11:56.153Z,5.70
2019-04-05T11:14:22.872Z,5.70
2019-04-05T11:16:58.237Z,5.70
2019-04-05T11:19:18.209Z,5.80
2019-04-05T11:21:47.906Z,5.70
2019-04-05T11:24:13.494Z,5.80
2019-04-05T11:26:40.231Z,5.80
2019-04-05T11:29:06.938Z,5.90
2019-04-05T11:31:33.759Z,6.00
2019-04-05T11:34:00.583Z,5.90
2019-04-05T11:36:27.298Z,6.00
2019-04-05T11:38:54.332Z,6.00
2019-04-05T11:41:24.456Z,6.10
2019-04-05T11:43:54.100Z,6.20
2019-04-05T11:46:20.968Z,6.20
2019-04-05T11:48:47.989Z,6.30
2019-04-05T11:51:14.736Z,6.40
2019-04-05T11:53:41.528Z,6.60
2019-04-05T11:56:14.479Z,6.60
2019-04-05T11:58:36.773Z,6.70
2019-04-05T12:01:03.567Z,6.80
2019-04-05T12:03:30.285Z,6.90
2019-04-05T12:05:57.053Z,6.90
2019-04-05T12:08:23.777Z,6.90
2019-04-05T12:10:50.514Z,6.90
2019-04-05T12:13:17.315Z,6.90
2019-04-05T12:15:44.042Z,6.70
2019-04-05T12:18:10.775Z,6.70
2019-04-05T12:20:47.823Z,6.80
2019-04-05T12:23:06.072Z,6.90
2019-04-05T12:25:33.667Z,7.00
2019-04-05T12:28:06.981Z,7.20
2019-04-05T12:30:29.757Z,7.30
2019-04-05T12:32:56.520Z,7.60
2019-04-05T12:35:23.277Z,8.10
2019-04-05T12:37:51.001Z,8.40
2019-04-05T12:40:20.674Z,8.70
2019-04-05T12:42:47.434Z,8.80
2019-04-05T12:45:15.432Z,8.90
2019-04-05T12:47:45.379Z,9.00
2019-04-05T12:50:14.249Z,9.00
2019-04-05T12:52:39.852Z,9.00
2019-04-05T12:55:26.313Z,8.80
2019-04-05T12:57:53.146Z,8.60
2019-04-05T13:00:20.173Z,8.40
2019-04-05T13:02:47.783Z,8.20
2019-04-05T13:05:15.505Z,8.50
2019-04-05T13:07:42.357Z,8.60
2019-04-05T13:10:09.906Z,8.60
2019-04-05T13:12:36.686Z,8.60
2019-04-05T13:15:13.710Z,8.60
2019-04-05T13:17:34.646Z,8.50
2019-04-05T13:20:01.463Z,8.40
2019-04-05T13:22:28.166Z,8.60
2019-04-05T13:24:54.909Z,8.60
2019-04-05T13:27:21.788Z,8.60
2019-04-05T13:29:49.220Z,8.70
2019-04-05T13:32:17.216Z,8.70
2019-04-05T13:34:44.959Z,8.60
2019-04-05T13:37:20.240Z,8.50
2019-04-05T13:39:40.380Z,8.40
2019-04-05T13:42:07.092Z,8.50
2019-04-05T13:44:33.872Z,8.60
2019-04-05T13:47:00.634Z,8.70
2019-04-05T13:49:27.372Z,9.30
2019-04-05T13:51:54.186Z,9.70
2019-04-05T13:54:20.918Z,9.70
2019-04-05T13:56:47.644Z,9.60
2019-04-05T13:59:14.455Z,9.30
2019-04-05T14:01:41.144Z,9.20
2019-04-05T14:04:07.883Z,9.20
2019-04-05T14:06:34.688Z,9.20
2019-04-05T14:09:01.395Z,9.20
2019-04-05T14:11:28.112Z,9.10
2019-04-05T14:13:54.907Z,9.20
2019-04-05T14:16:21.639Z,9.40
2019-04-05T14:18:49.867Z,9.40
2019-04-05T14:21:20.649Z,9.30
2019-04-05T14:23:46.393Z,9.20
2019-04-05T14:26:13.173Z,9.10
2019-04-05T14:28:39.916Z,8.80
2019-04-05T14:31:06.641Z,8.40
2019-04-05T14:33:33.398Z,8.20
2019-04-05T14:36:00.130Z,8.10
2019-04-05T14:38:27.220Z,8.10
2019-04-05T14:40:53.953Z,8.10
2019-04-05T14:43:21.406Z,8.20
2019-04-05T14:45:48.479Z,8.10
2019-04-05T14:48:15.198Z,8.30
2019-04-05T14:50:41.940Z,9.10
2019-04-05T14:53:08.794Z,10.20
2019-04-05T14:55:35.538Z,10.90
2019-04-05T14:58:03.355Z,11.40
2019-04-05T15:00:30.833Z,11.40
2019-04-05T15:02:57.580Z,11.10
2019-04-05T15:05:24.471Z,11.30
2019-04-05T15:07:52.030Z,11.80
2019-04-05T15:10:19.711Z,12.00
2019-04-05T15:12:46.495Z,12.20
2019-04-05T15:15:13.429Z,12.60
2019-04-05T15:17:47.931Z,12.40
2019-04-05T15:20:10.004Z,12.60
2019-04-05T15:22:36.722Z,12.50
2019-04-05T15:25:08.045Z,12.60
2019-04-05T15:27:34.910Z,13.00
2019-04-05T15:30:01.958Z,12.70
2019-04-05T15:32:28.718Z,12.50
2019-04-05T15:34:58.579Z,12.30
2019-04-05T15:37:24.042Z,11.80
2019-04-05T15:39:50.823Z,11.30
2019-04-05T15:42:17.681Z,10.90
2019-04-05T15:44:44.431Z,10.60
2019-04-05T15:47:13.570Z,10.20
2019-04-05T15:49:39.733Z,10.40
2019-04-05T15:52:31.164Z,10.50
2019-04-05T15:54:55.196Z,10.60
2019-04-05T15:57:21.976Z,10.90
2019-04-05T15:59:48.650Z,11.10
2019-04-05T16:02:15.730Z,11.50
2019-04-05T16:04:42.716Z,11.70
2019-04-05T16:07:09.470Z,11.40
2019-04-05T16:09:36.445Z,11.10
2019-04-05T16:12:03.687Z,10.50
2019-04-05T16:14:30.478Z,10.00
2019-04-05T16:16:57.207Z,9.60
2019-04-05T16:19:24.050Z,9.00
2019-04-05T16:21:50.828Z,8.40
2019-04-05T16:24:17.556Z,8.30
2019-04-05T16:26:44.479Z,8.10
2019-04-05T16:29:11.603Z,7.90
2019-04-05T16:31:38.271Z,7.70
2019-04-05T16:34:05.005Z,7.70
2019-04-05T16:36:31.800Z,7.80
2019-04-05T16:38:58.517Z,7.60
2019-04-05T16:41:25.289Z,7.50
2019-04-05T16:43:52.063Z,7.40
2019-04-05T16:46:18.762Z,7.20
2019-04-05T16:48:45.542Z,7.00
2019-04-05T16:51:12.240Z,6.80
2019-04-05T16:53:38.963Z,6.70
2019-04-05T16:56:05.823Z,6.50
2019-04-05T16:58:32.539Z,6.50
2019-04-05T17:00:59.254Z,6.60
2019-04-05T17:03:26.027Z,6.60
2019-04-05T17:05:52.756Z,6.60
2019-04-05T17:08:19.617Z,6.60
2019-04-05T17:10:46.343Z,6.50
2019-04-05T17:13:13.060Z,6.40
2019-04-05T17:15:39.897Z,6.30
2019-04-05T17:18:06.638Z,6.30
2019-04-05T17:20:33.392Z,6.30
2019-04-05T17:23:00.240Z,6.30
2019-04-05T17:25:26.949Z,6.30
2019-04-05T17:27:53.651Z,6.20
2019-04-05T17:30:20.459Z,6.20
2019-04-05T17:32:47.205Z,6.00
2019-04-05T17:35:14.032Z,5.90
2019-04-05T17:37:40.918Z,5.90
2019-04-05T17:40:08.354Z,5.80
2019-04-05T17:42:35.114Z,5.80
2019-04-05T17:45:03.685Z,5.70
2019-04-05T17:47:30.414Z,5.70
2019-04-05T17:49:57.144Z,5.60
2019-04-05T17:52:23.925Z,5.60
2019-04-05T17:54:50.727Z,5.40
2019-04-05T17:57:18.026Z,5.30
2019-04-05T17:59:44.744Z,5.30
2019-04-05T18:02:11.474Z,5.30
2019-04-05T18:04:38.340Z,5.20
2019-04-05T18:07:05.066Z,5.20
2019-04-05T18:09:31.836Z,5.20
2019-04-05T18:11:58.634Z,5.20
2019-04-05T18:14:25.356Z,5.10
2019-04-05T18:16:52.089Z,5.00
2019-04-05T18:19:18.857Z,5.00
2019-04-05T18:21:45.569Z,4.90
2019-04-05T18:24:12.424Z,4.90
2019-04-05T18:26:39.385Z,4.90
2019-04-05T18:29:06.090Z,4.90
2019-04-05T18:31:32.987Z,5.00
2019-04-05T18:33:59.704Z,5.10
2019-04-05T18:36:26.434Z,5.00
2019-04-05T18:38:53.199Z,4.90
2019-04-05T18:41:19.899Z,4.80
2019-04-05T18:43:46.803Z,4.80
2019-04-05T18:46:13.545Z,4.80
2019-04-05T18:48:40.382Z,4.70
2019-04-05T18:51:07.232Z,4.80
2019-04-05T18:53:37.960Z,4.80
2019-04-05T18:56:02.486Z,4.80
2019-04-05T18:58:29.259Z,4.70
2019-04-05T19:00:56.003Z,4.70
2019-04-05T19:03:22.784Z,4.70
2019-04-05T19:05:49.569Z,4.60
2019-04-05T19:08:16.269Z,4.60
2019-04-05T19:10:43.051Z,4.50
2019-04-05T19:13:09.752Z,4.50
2019-04-05T19:15:36.489Z,4.60
2019-04-05T19:18:03.260Z,4.60
2019-04-05T19:20:30.013Z,4.50
2019-04-05T19:22:56.731Z,4.50
2019-04-05T19:25:23.590Z,4.50
2019-04-05T19:27:50.305Z,4.40
2019-04-05T19:50:06.787Z,4.50
2019-04-05T19:52:37.143Z,4.50
2019-04-05T19:55:04.845Z,4.50
2019-04-05T19:57:31.547Z,4.40
2019-04-05T19:59:58.345Z,4.30
2019-04-05T20:02:25.260Z,4.30
2019-04-05T20:04:52.150Z,4.30
2019-04-05T20:07:19.111Z,4.40
2019-04-05T20:09:45.966Z,4.40
2019-04-05T20:12:12.782Z,4.40
2019-04-05T20:14:39.573Z,4.40
2019-04-05T20:17:06.332Z,4.30
2019-04-05T20:19:33.033Z,4.30
2019-04-05T20:21:59.913Z,4.30
2019-04-05T20:24:26.672Z,4.30
2019-04-05T20:26:53.401Z,4.30
2019-04-05T20:29:21.686Z,4.30
2019-04-05T20:31:48.539Z,4.20
2019-04-05T20:34:15.319Z,4.20
2019-04-05T20:36:42.054Z,4.30
2019-04-05T20:39:08.843Z,4.30
2019-04-05T20:41:35.567Z,4.30
2019-04-05T20:44:02.439Z,4.30
2019-04-05T20:46:29.290Z,4.30
2019-04-05T20:48:56.013Z,4.30
2019-04-05T20:51:22.769Z,4.30
2019-04-05T20:53:49.619Z,4.30
2019-04-05T20:56:16.352Z,4.30
2019-04-05T20:58:43.078Z,4.30
2019-04-05T21:01:09.930Z,4.30
2019-04-05T21:03:36.658Z,4.30
2019-04-05T21:06:03.378Z,4.30
2019-04-05T21:08:30.122Z,4.20
2019-04-05T21:10:56.842Z,4.30
2019-04-05T21:13:23.619Z,4.30
2019-04-05T21:15:50.358Z,4.30
2019-04-05T21:18:17.060Z,4.30
2019-04-05T21:20:44.527Z,4.30
2019-04-05T21:23:11.241Z,4.30
2019-04-05T21:25:38.024Z,4.40
2019-04-05T21:28:04.749Z,4.30
2019-04-05T21:30:31.485Z,4.30
2019-04-05T21:32:58.258Z,4.20
2019-04-05T21:35:24.982Z,4.30
2019-04-05T21:37:51.795Z,4.20
2019-04-05T21:40:18.509Z,4.20
2019-04-05T21:42:45.198Z,4.20
2019-04-05T21:45:12.226Z,4.20
2019-04-05T21:47:38.944Z,4.30
2019-04-05T21:50:08.784Z,4.20
2019-04-05T21:52:35.531Z,4.20
2019-04-05T21:55:04.630Z,4.10
2019-04-05T21:57:31.342Z,4.10
2019-04-05T21:59:58.116Z,4.10
2019-04-05T22:02:24.846Z,4.10
2019-04-05T22:04:51.570Z,4.00
2019-04-05T22:07:18.410Z,4.10
2019-04-05T22:09:45.118Z,4.10
2019-04-05T22:12:11.859Z,4.10
2019-04-05T22:14:38.621Z,4.00
2019-04-05T22:17:05.364Z,4.00
2019-04-05T22:19:32.122Z,4.00
2019-04-05T22:21:58.874Z,4.00
2019-04-05T22:24:25.621Z,4.00
2019-04-05T22:26:52.480Z,4.00
2019-04-05T22:29:19.205Z,4.00
2019-04-05T22:31:45.924Z,4.00
2019-04-05T22:34:12.713Z,4.10
2019-04-05T22:36:39.431Z,4.10
2019-04-05T22:39:06.153Z,4.20
2019-04-05T22:41:32.904Z,4.20
2019-04-05T22:43:59.646Z,4.20
2019-04-05T22:46:26.530Z,4.20
2019-04-05T22:48:53.266Z,4.30
2019-04-05T22:51:19.985Z,4.30
2019-04-05T22:53:46.829Z,4.30
2019-04-05T22:56:13.850Z,4.30
2019-04-05T22:58:40.547Z,4.20
2019-04-05T23:01:07.364Z,4.20
2019-04-05T23:03:34.073Z,4.20
2019-04-05T23:06:00.799Z,4.20
2019-04-05T23:08:27.549Z,4.20
2019-04-05T23:10:54.267Z,4.20
2019-04-05T23:13:21.142Z,4.20
2019-04-05T23:15:47.872Z,4.30
2019-04-05T23:18:14.614Z,4.20
2019-04-05T23:20:41.552Z,4.10
2019-04-05T23:23:08.278Z,4.10
2019-04-05T23:25:35.003Z,4.10
2019-04-05T23:28:02.130Z,4.10
2019-04-05T23:30:29.545Z,4.10
2019-04-05T23:32:56.324Z,4.00
2019-04-05T23:35:23.046Z,4.00
2019-04-05T23:37:49.740Z,4.20
2019-04-05T23:40:16.549Z,4.20
2019-04-05T23:42:43.283Z,4.10
2019-04-05T23:45:10.304Z,4.20
2019-04-05T23:47:37.123Z,4.20
2019-04-05T23:50:04.842Z,4.10
2019-04-05T23:52:31.633Z,4.20
2019-04-05T23:54:58.341Z,4.20
2019-04-05T23:57:25.076Z,4.20
2019-04-05T23:59:51.917Z,4.10
